LIMC Airport Information

Runway Information
Runway 17L Length 12861 ft width 197 ft
Elevation 745 ft Threshold 3094 ft Heading 170
Runway 35R Length 12861 ft Width 197 ft
Elevation 691 ft Threshold 0 ft Heading 350
Runway 17R Length 12861 ft width 197 ft
Elevation 764 ft Threshold 0 ft Heading 170
Runway 35L Length 12861 ft Width 197 ft
Elevation 696 ft Threshold 1329 ft Heading 350
Airport Frequencies
Type APP Name MILANO APP Frequency 132.7 MHZ
Type ATIS Name ATIS Frequency 120.025 MHZ
Type CLD Name CLNC DEL Frequency 120.9 MHZ
Type DEP Name MILANO DEP Frequency 126.75 MHZ
Type GND Name GND Frequency 121.9 MHZ
Type TWR Name TWR Frequency 119 MHZ
Airport Navaids
Type VOR-DME Name Malpensa Frequency 111200 KHZ
Type NDB Name Malpensa Frequency 364 KHZ
Airport Weather Information & NOTAM
ADDS - METARS form results

(0827 UTC 17 October 2021)
Data provider http://aviationweather.gov/metar/data/
 
METAR text: LIMC 170820Z 01004KT 340V040 CAVOK 13/09 Q1021 NOSIG
Conditions at: LIMC (MILANO/MALPENSA , IT) observed 0820 UTC 17 October 2021
Temperature: 13.0°C (55°F)
Dewpoint: 9.0°C (48°F) [RH = 77%]
Pressure (altimeter): 30.15 inches Hg (1021.0 mb)
Winds: from the N (10 degrees) at 5 MPH (4 knots; 2.1 m/s)
Visibility: 6 or more miles (10+ km)
Ceiling: ceiling and visibility are OK
Clouds: unknown
Weather: no significant weather observed at this time

METAR text: LIMC 170750Z 03003KT CAVOK 11/10 Q1021 NOSIG
Conditions at: LIMC (MILANO/MALPENSA , IT) observed 0750 UTC 17 October 2021
Temperature: 11.0°C (52°F)
Dewpoint: 10.0°C (50°F) [RH = 94%]
Pressure (altimeter): 30.15 inches Hg (1021.0 mb)
Winds: from the NNE (30 degrees) at 3 MPH (3 knots; 1.5 m/s)
Visibility: 6 or more miles (10+ km)
Ceiling: ceiling and visibility are OK
Clouds: unknown
Weather: no significant weather observed at this time

Forecast for: LIMC (MILANO/MALPENSA , IT)
Text: TAF LIMC 170500Z 1706/1812 VRB05KT CAVOK
Forecast period: 0600 UTC 17 October 2021 to 1200 UTC 18 October 2021
Forecast type: FROM: standard forecast or significant change
Winds: variable direction winds at 6 MPH (5 knots; 2.6 m/s)
Visibility: 6 or more miles (10+ km)
Ceiling: unknown
Clouds: missing
Weather: NSW  (no significant weather)
Text: TEMPO 1800/1806 2000 BCFG
Forecast period: 0000 to 0600 UTC 18 October 2021
Forecast type: TEMPORARY: The following changes expected for less than half the time period
Visibility: 1.24 miles (2.00 km)
Ceiling: unknown
Clouds: missing
Weather: BCFG  (patches of fog)